sensor_id;sensor_type;location;lat;lon;timestamp;temperature;humidity
44855;DHT22;30591;48.228;16.398;2023-03-12T00:02:16;0.40;96.40
44855;DHT22;30591;48.228;16.398;2023-03-12T00:04:43;0.10;96.60
44855;DHT22;30591;48.228;16.398;2023-03-12T00:07:11;0.00;96.90
44855;DHT22;30591;48.228;16.398;2023-03-12T00:09:38;0.00;97.00
44855;DHT22;30591;48.228;16.398;2023-03-12T00:12:06;0.00;97.10
44855;DHT22;30591;48.228;16.398;2023-03-12T00:14:34;0.00;97.30
44855;DHT22;30591;48.228;16.398;2023-03-12T00:17:02;-0.10;97.30
44855;DHT22;30591;48.228;16.398;2023-03-12T00:19:29;-0.20;97.40
44855;DHT22;30591;48.228;16.398;2023-03-12T00:21:57;0.10;97.80
44855;DHT22;30591;48.228;16.398;2023-03-12T00:24:24;-0.40;97.90
44855;DHT22;30591;48.228;16.398;2023-03-12T00:26:51;-0.40;98.00
44855;DHT22;30591;48.228;16.398;2023-03-12T00:29:18;-0.40;98.10
44855;DHT22;30591;48.228;16.398;2023-03-12T00:31:46;-0.50;98.30
44855;DHT22;30591;48.228;16.398;2023-03-12T00:34:13;-0.40;98.30
44855;DHT22;30591;48.228;16.398;2023-03-12T00:36:41;-0.40;98.10
44855;DHT22;30591;48.228;16.398;2023-03-12T00:39:09;-0.30;98.20
44855;DHT22;30591;48.228;16.398;2023-03-12T00:41:36;-0.30;97.90
44855;DHT22;30591;48.228;16.398;2023-03-12T00:44:03;-0.30;97.80
44855;DHT22;30591;48.228;16.398;2023-03-12T00:46:31;-0.20;97.80
44855;DHT22;30591;48.228;16.398;2023-03-12T00:48:58;-0.30;97.60
44855;DHT22;30591;48.228;16.398;2023-03-12T00:51:25;-0.20;97.70
44855;DHT22;30591;48.228;16.398;2023-03-12T00:53:53;-0.30;97.60
44855;DHT22;30591;48.228;16.398;2023-03-12T00:56:23;-0.30;97.70
44855;DHT22;30591;48.228;16.398;2023-03-12T00:58:51;-0.30;97.60
44855;DHT22;30591;48.228;16.398;2023-03-12T01:01:18;-0.40;97.70
44855;DHT22;30591;48.228;16.398;2023-03-12T01:03:46;-0.50;97.90
44855;DHT22;30591;48.228;16.398;2023-03-12T01:06:13;-0.60;98.10
44855;DHT22;30591;48.228;16.398;2023-03-12T01:08:41;-0.70;98.60
44855;DHT22;30591;48.228;16.398;2023-03-12T01:11:13;-0.90;98.60
44855;DHT22;30591;48.228;16.398;2023-03-12T01:13:40;-0.80;98.90
44855;DHT22;30591;48.228;16.398;2023-03-12T01:16:08;-0.90;99.00
44855;DHT22;30591;48.228;16.398;2023-03-12T01:18:35;-0.90;98.80
44855;DHT22;30591;48.228;16.398;2023-03-12T01:21:03;-0.90;99.30
44855;DHT22;30591;48.228;16.398;2023-03-12T01:23:31;-0.80;99.10
44855;DHT22;30591;48.228;16.398;2023-03-12T01:25:59;-0.90;98.80
44855;DHT22;30591;48.228;16.398;2023-03-12T01:28:26;-1.00;98.90
44855;DHT22;30591;48.228;16.398;2023-03-12T01:30:53;-0.90;99.30
44855;DHT22;30591;48.228;16.398;2023-03-12T01:33:21;-0.80;99.00
44855;DHT22;30591;48.228;16.398;2023-03-12T01:35:49;-0.80;98.70
44855;DHT22;30591;48.228;16.398;2023-03-12T01:38:16;-0.80;98.60
44855;DHT22;30591;48.228;16.398;2023-03-12T01:40:45;-0.70;98.60
44855;DHT22;30591;48.228;16.398;2023-03-12T01:43:26;-0.70;98.60
44855;DHT22;30591;48.228;16.398;2023-03-12T01:46:56;-0.70;98.40
44855;DHT22;30591;48.228;16.398;2023-03-12T01:49:06;-0.70;98.30
44855;DHT22;30591;48.228;16.398;2023-03-12T01:55:11;-1.00;98.40
44855;DHT22;30591;48.228;16.398;2023-03-12T01:57:44;-1.10;98.70
44855;DHT22;30591;48.228;16.398;2023-03-12T02:00:20;-1.20;98.80
44855;DHT22;30591;48.228;16.398;2023-03-12T02:02:51;-1.30;98.90
44855;DHT22;30591;48.228;16.398;2023-03-12T02:05:55;-1.40;99.10
44855;DHT22;30591;48.228;16.398;2023-03-12T02:08:24;-1.50;98.80
44855;DHT22;30591;48.228;16.398;2023-03-12T02:10:52;-1.70;99.60
44855;DHT22;30591;48.228;16.398;2023-03-12T02:13:19;-1.60;99.90
44855;DHT22;30591;48.228;16.398;2023-03-12T02:15:47;-1.50;99.90
44855;DHT22;30591;48.228;16.398;2023-03-12T02:18:17;-1.60;99.90
44855;DHT22;30591;48.228;16.398;2023-03-12T02:21:15;-1.50;99.90
44855;DHT22;30591;48.228;16.398;2023-03-12T02:26:30;-1.30;99.70
44855;DHT22;30591;48.228;16.398;2023-03-12T02:29:00;-1.20;99.50
44855;DHT22;30591;48.228;16.398;2023-03-12T02:31:36;-1.20;99.40
44855;DHT22;30591;48.228;16.398;2023-03-12T02:34:06;-1.30;99.50
44855;DHT22;30591;48.228;16.398;2023-03-12T02:36:35;-1.60;99.40
44855;DHT22;30591;48.228;16.398;2023-03-12T02:39:04;-1.70;99.90
44855;DHT22;30591;48.228;16.398;2023-03-12T02:41:38;-1.70;99.90
44855;DHT22;30591;48.228;16.398;2023-03-12T02:44:15;-1.90;99.80
44855;DHT22;30591;48.228;16.398;2023-03-12T02:46:49;-2.00;99.70
44855;DHT22;30591;48.228;16.398;2023-03-12T02:49:19;-2.10;99.90
44855;DHT22;30591;48.228;16.398;2023-03-12T02:51:47;-2.20;99.90
44855;DHT22;30591;48.228;16.398;2023-03-12T02:54:17;-2.20;99.90
44855;DHT22;30591;48.228;16.398;2023-03-12T02:56:46;-2.10;99.90
44855;DHT22;30591;48.228;16.398;2023-03-12T02:59:15;-2.10;99.90
44855;DHT22;30591;48.228;16.398;2023-03-12T03:01:43;-2.20;99.90
44855;DHT22;30591;48.228;16.398;2023-03-12T03:04:12;-2.30;99.90
44855;DHT22;30591;48.228;16.398;2023-03-12T03:06:42;-2.20;99.90
44855;DHT22;30591;48.228;16.398;2023-03-12T03:09:10;-2.30;99.90
44855;DHT22;30591;48.228;16.398;2023-03-12T03:11:38;-2.20;99.90
44855;DHT22;30591;48.228;16.398;2023-03-12T03:14:07;-2.30;99.90
44855;DHT22;30591;48.228;16.398;2023-03-12T03:16:35;-2.30;99.90
44855;DHT22;30591;48.228;16.398;2023-03-12T03:19:03;-2.30;99.90
44855;DHT22;30591;48.228;16.398;2023-03-12T03:21:31;-2.30;99.90
44855;DHT22;30591;48.228;16.398;2023-03-12T03:23:58;-2.50;99.90
44855;DHT22;30591;48.228;16.398;2023-03-12T03:26:26;-2.50;99.90
44855;DHT22;30591;48.228;16.398;2023-03-12T03:28:54;-2.50;99.90
44855;DHT22;30591;48.228;16.398;2023-03-12T03:31:21;-2.50;99.90
44855;DHT22;30591;48.228;16.398;2023-03-12T03:33:50;-2.60;99.90
44855;DHT22;30591;48.228;16.398;2023-03-12T03:36:17;-2.70;99.90
44855;DHT22;30591;48.228;16.398;2023-03-12T03:38:53;-2.90;99.90
44855;DHT22;30591;48.228;16.398;2023-03-12T03:41:21;-3.00;99.90
44855;DHT22;30591;48.228;16.398;2023-03-12T03:43:49;-3.00;99.90
44855;DHT22;30591;48.228;16.398;2023-03-12T03:46:19;-3.00;99.90
44855;DHT22;30591;48.228;16.398;2023-03-12T03:48:54;-3.00;99.90
44855;DHT22;30591;48.228;16.398;2023-03-12T03:51:22;-3.10;99.90
44855;DHT22;30591;48.228;16.398;2023-03-12T03:53:54;-3.20;99.90
44855;DHT22;30591;48.228;16.398;2023-03-12T03:56:22;-3.10;99.90
44855;DHT22;30591;48.228;16.398;2023-03-12T03:58:49;-3.20;99.90
44855;DHT22;30591;48.228;16.398;2023-03-12T04:01:19;-3.10;99.90
44855;DHT22;30591;48.228;16.398;2023-03-12T04:03:48;-3.00;99.90
44855;DHT22;30591;48.228;16.398;2023-03-12T04:06:16;-3.00;99.90
44855;DHT22;30591;48.228;16.398;2023-03-12T04:08:43;-3.00;99.90
44855;DHT22;30591;48.228;16.398;2023-03-12T04:11:19;-3.00;99.90
44855;DHT22;30591;48.228;16.398;2023-03-12T04:13:47;-3.00;99.90
44855;DHT22;30591;48.228;16.398;2023-03-12T04:16:17;-3.00;99.90
44855;DHT22;30591;48.228;16.398;2023-03-12T04:18:46;-3.00;99.90
44855;DHT22;30591;48.228;16.398;2023-03-12T04:21:15;-3.00;99.90
44855;DHT22;30591;48.228;16.398;2023-03-12T04:23:43;-2.90;99.90
44855;DHT22;30591;48.228;16.398;2023-03-12T04:26:12;-2.70;99.90
44855;DHT22;30591;48.228;16.398;2023-03-12T04:28:39;-2.60;99.90
44855;DHT22;30591;48.228;16.398;2023-03-12T04:31:10;-2.40;99.90
44855;DHT22;30591;48.228;16.398;2023-03-12T04:33:43;-2.30;99.90
44855;DHT22;30591;48.228;16.398;2023-03-12T04:36:10;-2.10;99.90
44855;DHT22;30591;48.228;16.398;2023-03-12T04:38:41;-2.60;99.90
44855;DHT22;30591;48.228;16.398;2023-03-12T04:41:11;-2.90;99.90
44855;DHT22;30591;48.228;16.398;2023-03-12T04:44:00;-3.20;99.90
44855;DHT22;30591;48.228;16.398;2023-03-12T04:46:28;-3.40;99.90
44855;DHT22;30591;48.228;16.398;2023-03-12T04:48:56;-3.40;99.90
44855;DHT22;30591;48.228;16.398;2023-03-12T04:51:24;-3.30;99.90
44855;DHT22;30591;48.228;16.398;2023-03-12T04:53:51;-3.30;99.90
44855;DHT22;30591;48.228;16.398;2023-03-12T04:56:18;-3.40;99.90
44855;DHT22;30591;48.228;16.398;2023-03-12T04:58:46;-3.40;99.90
44855;DHT22;30591;48.228;16.398;2023-03-12T05:01:34;-3.30;99.90
44855;DHT22;30591;48.228;16.398;2023-03-12T05:04:07;-3.20;99.90
44855;DHT22;30591;48.228;16.398;2023-03-12T05:06:35;-3.20;99.90
44855;DHT22;30591;48.228;16.398;2023-03-12T05:09:03;-3.10;99.90
44855;DHT22;30591;48.228;16.398;2023-03-12T05:11:31;-3.00;99.90
44855;DHT22;30591;48.228;16.398;2023-03-12T05:13:58;-3.00;99.90
44855;DHT22;30591;48.228;16.398;2023-03-12T05:16:27;-3.10;99.90
44855;DHT22;30591;48.228;16.398;2023-03-12T05:18:54;-3.20;99.90
44855;DHT22;30591;48.228;16.398;2023-03-12T05:21:24;-3.20;99.90
44855;DHT22;30591;48.228;16.398;2023-03-12T05:23:53;-3.30;99.90
44855;DHT22;30591;48.228;16.398;2023-03-12T05:26:29;-3.40;99.90
44855;DHT22;30591;48.228;16.398;2023-03-12T05:29:05;-3.40;99.90
44855;DHT22;30591;48.228;16.398;2023-03-12T05:31:33;-3.30;99.90
44855;DHT22;30591;48.228;16.398;2023-03-12T05:34:04;-3.30;99.90
44855;DHT22;30591;48.228;16.398;2023-03-12T05:36:35;-3.30;99.90
44855;DHT22;30591;48.228;16.398;2023-03-12T05:39:03;-3.30;99.90
44855;DHT22;30591;48.228;16.398;2023-03-12T05:41:32;-3.30;99.90
44855;DHT22;30591;48.228;16.398;2023-03-12T05:44:08;-3.20;99.90
44855;DHT22;30591;48.228;16.398;2023-03-12T05:46:37;-3.20;99.90
44855;DHT22;30591;48.228;16.398;2023-03-12T05:49:04;-3.20;99.90
44855;DHT22;30591;48.228;16.398;2023-03-12T05:51:33;-3.10;99.90
44855;DHT22;30591;48.228;16.398;2023-03-12T05:54:01;-3.00;99.90
44855;DHT22;30591;48.228;16.398;2023-03-12T05:56:29;-2.80;99.90
44855;DHT22;30591;48.228;16.398;2023-03-12T05:58:56;-2.80;99.90
44855;DHT22;30591;48.228;16.398;2023-03-12T06:01:26;-2.70;99.90
44855;DHT22;30591;48.228;16.398;2023-03-12T06:03:56;-2.70;99.90
44855;DHT22;30591;48.228;16.398;2023-03-12T06:06:25;-2.30;99.90
44855;DHT22;30591;48.228;16.398;2023-03-12T06:08:53;-2.10;99.90
44855;DHT22;30591;48.228;16.398;2023-03-12T06:11:20;-2.00;99.90
44855;DHT22;30591;48.228;16.398;2023-03-12T06:13:47;-2.00;99.90
44855;DHT22;30591;48.228;16.398;2023-03-12T06:16:19;-1.90;99.90
44855;DHT22;30591;48.228;16.398;2023-03-12T06:18:52;-1.80;99.90
44855;DHT22;30591;48.228;16.398;2023-03-12T06:21:23;-1.70;99.90
44855;DHT22;30591;48.228;16.398;2023-03-12T06:23:52;-1.60;99.90
44855;DHT22;30591;48.228;16.398;2023-03-12T06:26:25;-1.50;99.90
44855;DHT22;30591;48.228;16.398;2023-03-12T06:28:53;-1.50;99.90
44855;DHT22;30591;48.228;16.398;2023-03-12T06:31:21;-1.40;99.90
44855;DHT22;30591;48.228;16.398;2023-03-12T06:33:49;-1.40;99.90
44855;DHT22;30591;48.228;16.398;2023-03-12T06:36:17;-1.40;99.90
44855;DHT22;30591;48.228;16.398;2023-03-12T06:38:44;-1.30;99.90
44855;DHT22;30591;48.228;16.398;2023-03-12T06:41:14;-1.30;99.90
44855;DHT22;30591;48.228;16.398;2023-03-12T06:43:42;-1.30;99.90
44855;DHT22;30591;48.228;16.398;2023-03-12T06:46:13;-1.10;99.90
44855;DHT22;30591;48.228;16.398;2023-03-12T06:48:41;-1.00;99.90
44855;DHT22;30591;48.228;16.398;2023-03-12T06:51:10;-0.80;99.90
44855;DHT22;30591;48.228;16.398;2023-03-12T06:53:38;-0.60;99.90
44855;DHT22;30591;48.228;16.398;2023-03-12T06:56:09;-0.50;99.90
44855;DHT22;30591;48.228;16.398;2023-03-12T06:58:37;-0.20;99.90
44855;DHT22;30591;48.228;16.398;2023-03-12T07:01:04;-0.10;99.90
44855;DHT22;30591;48.228;16.398;2023-03-12T07:03:32;0.20;99.90
44855;DHT22;30591;48.228;16.398;2023-03-12T07:05:59;0.50;99.90
44855;DHT22;30591;48.228;16.398;2023-03-12T07:08:28;0.70;99.90
44855;DHT22;30591;48.228;16.398;2023-03-12T07:10:58;0.70;99.90
44855;DHT22;30591;48.228;16.398;2023-03-12T07:13:30;0.80;99.90
44855;DHT22;30591;48.228;16.398;2023-03-12T07:15:57;0.80;99.70
44855;DHT22;30591;48.228;16.398;2023-03-12T07:18:24;0.90;99.50
44855;DHT22;30591;48.228;16.398;2023-03-12T07:20:52;1.10;99.30
44855;DHT22;30591;48.228;16.398;2023-03-12T07:23:20;1.40;98.80
44855;DHT22;30591;48.228;16.398;2023-03-12T07:25:48;1.70;97.90
44855;DHT22;30591;48.228;16.398;2023-03-12T07:28:16;1.80;97.20
44855;DHT22;30591;48.228;16.398;2023-03-12T07:30:44;2.00;96.80
44855;DHT22;30591;48.228;16.398;2023-03-12T07:33:18;2.10;96.40
44855;DHT22;30591;48.228;16.398;2023-03-12T07:35:47;2.20;95.90
44855;DHT22;30591;48.228;16.398;2023-03-12T07:38:18;2.40;95.80
44855;DHT22;30591;48.228;16.398;2023-03-12T07:40:51;2.60;95.30
44855;DHT22;30591;48.228;16.398;2023-03-12T07:43:19;2.60;95.10
44855;DHT22;30591;48.228;16.398;2023-03-12T07:45:50;2.80;95.30
44855;DHT22;30591;48.228;16.398;2023-03-12T07:48:18;2.80;94.40
44855;DHT22;30591;48.228;16.398;2023-03-12T07:50:46;3.10;94.90
44855;DHT22;30591;48.228;16.398;2023-03-12T07:53:15;3.10;93.90
44855;DHT22;30591;48.228;16.398;2023-03-12T07:55:44;3.30;93.40
44855;DHT22;30591;48.228;16.398;2023-03-12T07:58:13;3.30;93.40
44855;DHT22;30591;48.228;16.398;2023-03-12T08:00:41;3.50;93.30
44855;DHT22;30591;48.228;16.398;2023-03-12T08:03:08;3.40;93.10
44855;DHT22;30591;48.228;16.398;2023-03-12T08:05:36;3.40;93.20
44855;DHT22;30591;48.228;16.398;2023-03-12T08:08:04;3.60;93.20
44855;DHT22;30591;48.228;16.398;2023-03-12T08:10:31;3.70;92.60
44855;DHT22;30591;48.228;16.398;2023-03-12T08:12:59;3.70;92.90
44855;DHT22;30591;48.228;16.398;2023-03-12T08:15:26;3.80;91.30
44855;DHT22;30591;48.228;16.398;2023-03-12T08:17:53;3.70;91.40
44855;DHT22;30591;48.228;16.398;2023-03-12T08:20:20;4.00;92.10
44855;DHT22;30591;48.228;16.398;2023-03-12T08:22:48;4.00;90.80
44855;DHT22;30591;48.228;16.398;2023-03-12T08:25:15;3.90;90.80
44855;DHT22;30591;48.228;16.398;2023-03-12T08:27:44;4.00;91.10
44855;DHT22;30591;48.228;16.398;2023-03-12T08:30:11;4.20;91.70
44855;DHT22;30591;48.228;16.398;2023-03-12T08:32:39;4.10;89.50
44855;DHT22;30591;48.228;16.398;2023-03-12T08:35:07;4.00;90.70
44855;DHT22;30591;48.228;16.398;2023-03-12T08:37:36;4.10;90.00
44855;DHT22;30591;48.228;16.398;2023-03-12T08:40:03;4.00;88.40
44855;DHT22;30591;48.228;16.398;2023-03-12T08:42:42;4.30;90.00
44855;DHT22;30591;48.228;16.398;2023-03-12T08:45:11;4.40;89.90
44855;DHT22;30591;48.228;16.398;2023-03-12T08:47:38;4.70;88.40
44855;DHT22;30591;48.228;16.398;2023-03-12T08:50:09;4.80;88.00
44855;DHT22;30591;48.228;16.398;2023-03-12T08:52:38;4.50;88.60
44855;DHT22;30591;48.228;16.398;2023-03-12T08:55:34;4.70;88.50
44855;DHT22;30591;48.228;16.398;2023-03-12T08:58:01;4.90;87.90
44855;DHT22;30591;48.228;16.398;2023-03-12T09:00:28;5.00;88.20
44855;DHT22;30591;48.228;16.398;2023-03-12T09:02:55;5.10;88.40
44855;DHT22;30591;48.228;16.398;2023-03-12T09:05:25;5.00;88.00
44855;DHT22;30591;48.228;16.398;2023-03-12T09:07:54;4.90;86.90
44855;DHT22;30591;48.228;16.398;2023-03-12T09:10:23;5.00;88.30
44855;DHT22;30591;48.228;16.398;2023-03-12T09:12:51;5.30;88.60
44855;DHT22;30591;48.228;16.398;2023-03-12T09:15:18;5.20;89.00
44855;DHT22;30591;48.228;16.398;2023-03-12T09:17:45;5.00;84.70
44855;DHT22;30591;48.228;16.398;2023-03-12T09:20:14;4.90;86.10
44855;DHT22;30591;48.228;16.398;2023-03-12T09:22:42;4.90;85.90
44855;DHT22;30591;48.228;16.398;2023-03-12T09:25:10;4.90;86.90
44855;DHT22;30591;48.228;16.398;2023-03-12T09:27:46;5.20;86.40
44855;DHT22;30591;48.228;16.398;2023-03-12T09:30:16;5.40;86.80
44855;DHT22;30591;48.228;16.398;2023-03-12T09:32:44;5.60;85.70
44855;DHT22;30591;48.228;16.398;2023-03-12T09:35:14;5.50;85.60
44855;DHT22;30591;48.228;16.398;2023-03-12T09:37:42;5.50;86.20
44855;DHT22;30591;48.228;16.398;2023-03-12T09:40:17;5.70;87.80
44855;DHT22;30591;48.228;16.398;2023-03-12T09:45:59;6.00;78.50
44855;DHT22;30591;48.228;16.398;2023-03-12T09:48:35;6.00;77.70
44855;DHT22;30591;48.228;16.398;2023-03-12T09:51:42;5.90;78.90
44855;DHT22;30591;48.228;16.398;2023-03-12T09:54:42;5.80;81.90
44855;DHT22;30591;48.228;16.398;2023-03-12T09:57:20;5.70;82.50
44855;DHT22;30591;48.228;16.398;2023-03-12T09:59:49;5.60;82.50
44855;DHT22;30591;48.228;16.398;2023-03-12T10:02:38;5.60;85.50
44855;DHT22;30591;48.228;16.398;2023-03-12T10:05:18;5.70;85.60
44855;DHT22;30591;48.228;16.398;2023-03-12T10:07:59;5.90;83.10
44855;DHT22;30591;48.228;16.398;2023-03-12T10:11:31;6.30;84.40
44855;DHT22;30591;48.228;16.398;2023-03-12T10:19:34;6.90;83.90
44855;DHT22;30591;48.228;16.398;2023-03-12T10:22:30;6.30;80.10
44855;DHT22;30591;48.228;16.398;2023-03-12T10:25:31;6.40;81.50
44855;DHT22;30591;48.228;16.398;2023-03-12T10:28:28;7.20;86.40
44855;DHT22;30591;48.228;16.398;2023-03-12T10:31:00;7.30;79.50
44855;DHT22;30591;48.228;16.398;2023-03-12T10:33:41;7.20;78.10
44855;DHT22;30591;48.228;16.398;2023-03-12T10:36:16;7.10;77.70
44855;DHT22;30591;48.228;16.398;2023-03-12T10:38:45;7.00;77.70
44855;DHT22;30591;48.228;16.398;2023-03-12T10:41:24;7.10;77.90
44855;DHT22;30591;48.228;16.398;2023-03-12T10:43:51;7.50;79.50
44855;DHT22;30591;48.228;16.398;2023-03-12T10:49:27;7.60;75.50
44855;DHT22;30591;48.228;16.398;2023-03-12T10:54:56;8.00;81.00
44855;DHT22;30591;48.228;16.398;2023-03-12T10:57:38;7.40;74.00
44855;DHT22;30591;48.228;16.398;2023-03-12T11:00:08;7.80;80.10
44855;DHT22;30591;48.228;16.398;2023-03-12T11:02:43;8.10;77.60
44855;DHT22;30591;48.228;16.398;2023-03-12T11:05:22;8.10;75.80
44855;DHT22;30591;48.228;16.398;2023-03-12T11:07:50;8.10;76.00
44855;DHT22;30591;48.228;16.398;2023-03-12T11:10:26;8.20;76.00
44855;DHT22;30591;48.228;16.398;2023-03-12T11:13:08;8.60;77.00
44855;DHT22;30591;48.228;16.398;2023-03-12T11:15:47;9.00;78.00
44855;DHT22;30591;48.228;16.398;2023-03-12T11:23:37;9.20;73.80
44855;DHT22;30591;48.228;16.398;2023-03-12T11:26:18;9.40;73.10
44855;DHT22;30591;48.228;16.398;2023-03-12T11:28:49;12.50;67.10
44855;DHT22;30591;48.228;16.398;2023-03-12T11:31:44;15.20;62.50
44855;DHT22;30591;48.228;16.398;2023-03-12T11:34:26;16.60;58.30
44855;DHT22;30591;48.228;16.398;2023-03-12T11:49:17;16.60;53.50
44855;DHT22;30591;48.228;16.398;2023-03-12T11:54:47;16.60;53.80
44855;DHT22;30591;48.228;16.398;2023-03-12T12:00:32;15.00;55.70
44855;DHT22;30591;48.228;16.398;2023-03-12T12:08:58;16.50;53.00
44855;DHT22;30591;48.228;16.398;2023-03-12T12:21:02;15.70;54.60
44855;DHT22;30591;48.228;16.398;2023-03-12T12:26:05;12.10;57.30
44855;DHT22;30591;48.228;16.398;2023-03-12T12:31:49;12.90;59.40
44855;DHT22;30591;48.228;16.398;2023-03-12T12:34:26;15.00;54.30
44855;DHT22;30591;48.228;16.398;2023-03-12T12:37:21;16.90;52.30
44855;DHT22;30591;48.228;16.398;2023-03-12T12:40:02;18.70;53.30
44855;DHT22;30591;48.228;16.398;2023-03-12T12:42:46;20.40;49.70
44855;DHT22;30591;48.228;16.398;2023-03-12T12:45:16;19.50;49.70
44855;DHT22;30591;48.228;16.398;2023-03-12T12:48:36;20.00;48.50
44855;DHT22;30591;48.228;16.398;2023-03-12T12:50:38;19.80;48.30
44855;DHT22;30591;48.228;16.398;2023-03-12T13:01:52;11.10;56.60
44855;DHT22;30591;48.228;16.398;2023-03-12T13:04:27;10.80;59.40
44855;DHT22;30591;48.228;16.398;2023-03-12T13:09:36;10.80;59.00
44855;DHT22;30591;48.228;16.398;2023-03-12T13:14:42;10.00;62.00
44855;DHT22;30591;48.228;16.398;2023-03-12T13:17:25;9.90;64.60
44855;DHT22;30591;48.228;16.398;2023-03-12T13:25:26;9.90;64.60
44855;DHT22;30591;48.228;16.398;2023-03-12T13:28:24;10.10;64.10
44855;DHT22;30591;48.228;16.398;2023-03-12T13:30:49;10.00;63.00
44855;DHT22;30591;48.228;16.398;2023-03-12T13:33:19;10.30;63.60
44855;DHT22;30591;48.228;16.398;2023-03-12T13:36:10;10.70;64.60
44855;DHT22;30591;48.228;16.398;2023-03-12T13:38:56;10.60;63.00
44855;DHT22;30591;48.228;16.398;2023-03-12T13:41:37;11.30;62.20
44855;DHT22;30591;48.228;16.398;2023-03-12T13:46:57;10.60;63.90
44855;DHT22;30591;48.228;16.398;2023-03-12T13:49:26;10.10;66.10
44855;DHT22;30591;48.228;16.398;2023-03-12T13:52:27;10.10;62.10
44855;DHT22;30591;48.228;16.398;2023-03-12T13:55:06;10.50;63.30
44855;DHT22;30591;48.228;16.398;2023-03-12T13:57:46;10.20;62.60
44855;DHT22;30591;48.228;16.398;2023-03-12T14:00:23;9.70;64.90
44855;DHT22;30591;48.228;16.398;2023-03-12T14:02:56;9.60;64.60
44855;DHT22;30591;48.228;16.398;2023-03-12T14:05:26;9.60;65.30
44855;DHT22;30591;48.228;16.398;2023-03-12T14:08:06;9.50;64.70
44855;DHT22;30591;48.228;16.398;2023-03-12T14:11:11;9.50;65.40
44855;DHT22;30591;48.228;16.398;2023-03-12T14:16:51;9.30;65.80
44855;DHT22;30591;48.228;16.398;2023-03-12T14:19:28;9.20;64.70
44855;DHT22;30591;48.228;16.398;2023-03-12T14:22:00;9.10;64.30
44855;DHT22;30591;48.228;16.398;2023-03-12T14:24:31;9.10;65.70
44855;DHT22;30591;48.228;16.398;2023-03-12T14:27:00;9.10;66.10
44855;DHT22;30591;48.228;16.398;2023-03-12T14:29:34;9.00;67.10
44855;DHT22;30591;48.228;16.398;2023-03-12T14:32:14;8.90;67.00
44855;DHT22;30591;48.228;16.398;2023-03-12T14:34:46;8.90;67.20
44855;DHT22;30591;48.228;16.398;2023-03-12T14:37:23;8.80;67.40
44855;DHT22;30591;48.228;16.398;2023-03-12T14:39:55;8.80;67.50
44855;DHT22;30591;48.228;16.398;2023-03-12T14:42:28;8.80;67.30
44855;DHT22;30591;48.228;16.398;2023-03-12T14:45:08;8.90;68.70
44855;DHT22;30591;48.228;16.398;2023-03-12T14:47:41;8.80;68.40
44855;DHT22;30591;48.228;16.398;2023-03-12T14:50:20;8.80;69.70
44855;DHT22;30591;48.228;16.398;2023-03-12T14:52:49;8.70;71.10
44855;DHT22;30591;48.228;16.398;2023-03-12T14:55:23;8.80;70.20
44855;DHT22;30591;48.228;16.398;2023-03-12T14:58:05;8.70;70.40
44855;DHT22;30591;48.228;16.398;2023-03-12T15:00:33;8.70;70.30
44855;DHT22;30591;48.228;16.398;2023-03-12T15:03:03;8.70;69.60
44855;DHT22;30591;48.228;16.398;2023-03-12T15:05:31;8.70;69.70
44855;DHT22;30591;48.228;16.398;2023-03-12T15:08:02;8.70;70.90
44855;DHT22;30591;48.228;16.398;2023-03-12T15:10:30;8.60;70.60
44855;DHT22;30591;48.228;16.398;2023-03-12T15:12:59;8.70;71.60
44855;DHT22;30591;48.228;16.398;2023-03-12T15:18:18;8.60;70.90
44855;DHT22;30591;48.228;16.398;2023-03-12T15:20:47;8.60;72.10
44855;DHT22;30591;48.228;16.398;2023-03-12T15:23:16;8.60;72.00
44855;DHT22;30591;48.228;16.398;2023-03-12T15:25:45;8.60;71.60
44855;DHT22;30591;48.228;16.398;2023-03-12T15:30:44;8.60;73.10
44855;DHT22;30591;48.228;16.398;2023-03-12T15:35:58;8.60;73.60
44855;DHT22;30591;48.228;16.398;2023-03-12T15:38:27;8.50;74.20
44855;DHT22;30591;48.228;16.398;2023-03-12T15:40:57;8.50;73.20
44855;DHT22;30591;48.228;16.398;2023-03-12T15:43:27;8.40;72.80
44855;DHT22;30591;48.228;16.398;2023-03-12T15:46:02;8.40;71.80
44855;DHT22;30591;48.228;16.398;2023-03-12T15:48:37;8.30;70.80
44855;DHT22;30591;48.228;16.398;2023-03-12T15:51:13;8.40;71.20
44855;DHT22;30591;48.228;16.398;2023-03-12T15:56:45;8.40;69.70
44855;DHT22;30591;48.228;16.398;2023-03-12T16:01:45;8.30;69.90
44855;DHT22;30591;48.228;16.398;2023-03-12T16:04:12;8.30;69.90
44855;DHT22;30591;48.228;16.398;2023-03-12T16:06:40;8.20;69.50
44855;DHT22;30591;48.228;16.398;2023-03-12T16:09:17;8.20;70.20
44855;DHT22;30591;48.228;16.398;2023-03-12T16:11:46;8.10;71.50
44855;DHT22;30591;48.228;16.398;2023-03-12T16:14:15;8.10;72.60
44855;DHT22;30591;48.228;16.398;2023-03-12T16:16:44;8.00;72.60
44855;DHT22;30591;48.228;16.398;2023-03-12T16:19:16;8.00;74.40
44855;DHT22;30591;48.228;16.398;2023-03-12T16:21:44;7.90;75.70
44855;DHT22;30591;48.228;16.398;2023-03-12T16:24:12;7.90;76.10
44855;DHT22;30591;48.228;16.398;2023-03-12T16:26:55;7.90;76.30
44855;DHT22;30591;48.228;16.398;2023-03-12T16:29:33;7.90;76.60
44855;DHT22;30591;48.228;16.398;2023-03-12T16:32:01;7.80;78.40
44855;DHT22;30591;48.228;16.398;2023-03-12T16:34:35;7.80;77.90
44855;DHT22;30591;48.228;16.398;2023-03-12T16:37:03;7.70;79.20
44855;DHT22;30591;48.228;16.398;2023-03-12T16:39:30;7.70;78.90
44855;DHT22;30591;48.228;16.398;2023-03-12T16:42:00;7.70;80.10
44855;DHT22;30591;48.228;16.398;2023-03-12T16:44:30;7.60;79.70
44855;DHT22;30591;48.228;16.398;2023-03-12T16:46:59;7.50;81.60
44855;DHT22;30591;48.228;16.398;2023-03-12T16:49:27;7.60;80.60
44855;DHT22;30591;48.228;16.398;2023-03-12T16:51:54;7.50;80.60
44855;DHT22;30591;48.228;16.398;2023-03-12T16:54:21;7.50;80.60
44855;DHT22;30591;48.228;16.398;2023-03-12T16:56:48;7.50;80.50
44855;DHT22;30591;48.228;16.398;2023-03-12T16:59:23;7.50;81.60
44855;DHT22;30591;48.228;16.398;2023-03-12T17:01:52;7.50;81.90
44855;DHT22;30591;48.228;16.398;2023-03-12T17:04:19;7.40;81.40
44855;DHT22;30591;48.228;16.398;2023-03-12T17:06:46;7.50;81.00
44855;DHT22;30591;48.228;16.398;2023-03-12T17:09:13;7.50;81.00
44855;DHT22;30591;48.228;16.398;2023-03-12T17:11:41;7.50;81.20
44855;DHT22;30591;48.228;16.398;2023-03-12T17:14:20;7.50;81.20
44855;DHT22;30591;48.228;16.398;2023-03-12T17:16:49;7.40;81.90
44855;DHT22;30591;48.228;16.398;2023-03-12T17:19:16;7.40;81.80
44855;DHT22;30591;48.228;16.398;2023-03-12T17:21:44;7.40;82.00
44855;DHT22;30591;48.228;16.398;2023-03-12T17:24:12;7.30;82.40
44855;DHT22;30591;48.228;16.398;2023-03-12T17:26:41;7.30;83.40
44855;DHT22;30591;48.228;16.398;2023-03-12T17:29:09;7.30;83.40
44855;DHT22;30591;48.228;16.398;2023-03-12T17:31:36;7.30;84.60
44855;DHT22;30591;48.228;16.398;2023-03-12T17:34:04;7.20;83.80
44855;DHT22;30591;48.228;16.398;2023-03-12T17:36:35;7.10;85.60